sensor_id;sensor_type;location;lat;lon;timestamp;temperature;humidity
35607;DHT22;21729;58.392;15.656;2023-03-05T00:00:11;-2.30;99.90
35607;DHT22;21729;58.392;15.656;2023-03-05T00:02:38;-2.20;99.90
35607;DHT22;21729;58.392;15.656;2023-03-05T00:05:06;-2.30;99.90
35607;DHT22;21729;58.392;15.656;2023-03-05T00:07:33;-2.30;99.90
35607;DHT22;21729;58.392;15.656;2023-03-05T00:10:02;-2.30;99.90
35607;DHT22;21729;58.392;15.656;2023-03-05T00:12:31;-2.40;99.90
35607;DHT22;21729;58.392;15.656;2023-03-05T00:14:58;-2.40;99.90
35607;DHT22;21729;58.392;15.656;2023-03-05T00:17:25;-2.40;99.90
35607;DHT22;21729;58.392;15.656;2023-03-05T00:19:52;-2.40;99.90
35607;DHT22;21729;58.392;15.656;2023-03-05T00:22:21;-2.40;99.90
35607;DHT22;21729;58.392;15.656;2023-03-05T00:24:49;-2.20;99.90
35607;DHT22;21729;58.392;15.656;2023-03-05T00:27:17;-2.10;99.90
35607;DHT22;21729;58.392;15.656;2023-03-05T00:29:45;-2.20;99.90
35607;DHT22;21729;58.392;15.656;2023-03-05T00:32:12;-2.20;99.90
35607;DHT22;21729;58.392;15.656;2023-03-05T00:34:39;-1.90;99.90
35607;DHT22;21729;58.392;15.656;2023-03-05T00:37:07;-2.20;99.90
35607;DHT22;21729;58.392;15.656;2023-03-05T00:39:34;-2.20;99.90
35607;DHT22;21729;58.392;15.656;2023-03-05T00:42:01;-2.20;99.90
35607;DHT22;21729;58.392;15.656;2023-03-05T00:44:28;-2.20;99.90
35607;DHT22;21729;58.392;15.656;2023-03-05T00:46:56;-2.20;99.90
35607;DHT22;21729;58.392;15.656;2023-03-05T00:49:24;-2.20;99.90
35607;DHT22;21729;58.392;15.656;2023-03-05T00:51:51;-2.20;99.90
35607;DHT22;21729;58.392;15.656;2023-03-05T00:54:18;-2.30;99.90
35607;DHT22;21729;58.392;15.656;2023-03-05T00:56:45;-2.20;99.90
35607;DHT22;21729;58.392;15.656;2023-03-05T00:59:13;-2.30;99.90
35607;DHT22;21729;58.392;15.656;2023-03-05T01:01:40;-2.30;99.90
35607;DHT22;21729;58.392;15.656;2023-03-05T01:04:09;-2.40;99.90
35607;DHT22;21729;58.392;15.656;2023-03-05T01:06:36;-2.60;99.90
35607;DHT22;21729;58.392;15.656;2023-03-05T01:09:07;-2.40;1.00
35607;DHT22;21729;58.392;15.656;2023-03-05T01:11:34;-2.30;1.00
35607;DHT22;21729;58.392;15.656;2023-03-05T01:14:01;-2.40;1.00
35607;DHT22;21729;58.392;15.656;2023-03-05T01:16:29;-2.40;1.00
35607;DHT22;21729;58.392;15.656;2023-03-05T01:18:56;-2.30;1.00
35607;DHT22;21729;58.392;15.656;2023-03-05T01:21:24;-2.40;1.00
35607;DHT22;21729;58.392;15.656;2023-03-05T01:23:51;-2.40;1.00
35607;DHT22;21729;58.392;15.656;2023-03-05T01:26:19;-2.40;1.00
35607;DHT22;21729;58.392;15.656;2023-03-05T01:28:46;-2.40;1.00
35607;DHT22;21729;58.392;15.656;2023-03-05T01:31:13;-2.40;1.00
35607;DHT22;21729;58.392;15.656;2023-03-05T01:33:40;-2.40;1.00
35607;DHT22;21729;58.392;15.656;2023-03-05T01:36:08;-2.50;1.00
35607;DHT22;21729;58.392;15.656;2023-03-05T01:38:39;-2.50;1.00
35607;DHT22;21729;58.392;15.656;2023-03-05T01:41:07;-2.50;1.00
35607;DHT22;21729;58.392;15.656;2023-03-05T01:43:34;-2.70;1.00
35607;DHT22;21729;58.392;15.656;2023-03-05T01:46:29;-2.70;1.00
35607;DHT22;21729;58.392;15.656;2023-03-05T01:49:08;-2.60;99.90
35607;DHT22;21729;58.392;15.656;2023-03-05T01:51:39;-2.60;99.90
35607;DHT22;21729;58.392;15.656;2023-03-05T01:54:11;-2.50;99.90
35607;DHT22;21729;58.392;15.656;2023-03-05T01:56:40;-2.60;99.90
35607;DHT22;21729;58.392;15.656;2023-03-05T01:59:08;-2.70;1.40
35607;DHT22;21729;58.392;15.656;2023-03-05T02:01:40;-2.70;99.90
35607;DHT22;21729;58.392;15.656;2023-03-05T02:04:08;-2.60;99.90
35607;DHT22;21729;58.392;15.656;2023-03-05T02:06:36;-2.70;99.90
35607;DHT22;21729;58.392;15.656;2023-03-05T02:09:04;-2.70;99.90
35607;DHT22;21729;58.392;15.656;2023-03-05T02:11:33;-2.60;99.90
35607;DHT22;21729;58.392;15.656;2023-03-05T02:14:02;-2.60;99.90
35607;DHT22;21729;58.392;15.656;2023-03-05T02:16:29;-2.60;99.90
35607;DHT22;21729;58.392;15.656;2023-03-05T02:19:01;-2.70;99.90
35607;DHT22;21729;58.392;15.656;2023-03-05T02:21:36;-2.80;99.90
35607;DHT22;21729;58.392;15.656;2023-03-05T02:24:04;-2.70;99.90
35607;DHT22;21729;58.392;15.656;2023-03-05T02:26:31;-2.80;99.90
35607;DHT22;21729;58.392;15.656;2023-03-05T02:29:00;-2.80;99.90
35607;DHT22;21729;58.392;15.656;2023-03-05T02:31:29;-2.80;99.90
35607;DHT22;21729;58.392;15.656;2023-03-05T02:33:56;-2.80;99.90
35607;DHT22;21729;58.392;15.656;2023-03-05T02:36:24;-2.80;99.90
35607;DHT22;21729;58.392;15.656;2023-03-05T02:38:53;-2.80;99.90
35607;DHT22;21729;58.392;15.656;2023-03-05T02:41:22;-2.80;99.90
35607;DHT22;21729;58.392;15.656;2023-03-05T02:43:49;-2.90;99.90
35607;DHT22;21729;58.392;15.656;2023-03-05T02:46:17;-2.90;99.90
35607;DHT22;21729;58.392;15.656;2023-03-05T02:48:44;-2.90;99.90
35607;DHT22;21729;58.392;15.656;2023-03-05T02:51:11;-2.90;99.90
35607;DHT22;21729;58.392;15.656;2023-03-05T02:53:39;-2.90;1.00
35607;DHT22;21729;58.392;15.656;2023-03-05T02:56:07;-2.90;1.00
35607;DHT22;21729;58.392;15.656;2023-03-05T02:58:35;-3.00;99.90
35607;DHT22;21729;58.392;15.656;2023-03-05T03:01:02;-3.00;1.00
35607;DHT22;21729;58.392;15.656;2023-03-05T03:03:29;-2.90;99.90
35607;DHT22;21729;58.392;15.656;2023-03-05T03:05:56;-2.90;1.40
35607;DHT22;21729;58.392;15.656;2023-03-05T03:08:23;-2.60;1.00
35607;DHT22;21729;58.392;15.656;2023-03-05T03:10:51;-3.10;1.00
35607;DHT22;21729;58.392;15.656;2023-03-05T03:13:19;-3.10;1.00
35607;DHT22;21729;58.392;15.656;2023-03-05T03:15:46;-3.50;1.00
35607;DHT22;21729;58.392;15.656;2023-03-05T03:18:13;-3.10;1.00
35607;DHT22;21729;58.392;15.656;2023-03-05T03:20:40;-3.20;1.00
35607;DHT22;21729;58.392;15.656;2023-03-05T03:23:08;-3.20;1.00
35607;DHT22;21729;58.392;15.656;2023-03-05T03:25:35;-3.20;1.00
35607;DHT22;21729;58.392;15.656;2023-03-05T03:28:02;-3.10;1.00
35607;DHT22;21729;58.392;15.656;2023-03-05T03:30:30;-3.10;1.00
35607;DHT22;21729;58.392;15.656;2023-03-05T03:32:58;-3.10;1.00
35607;DHT22;21729;58.392;15.656;2023-03-05T03:35:25;-3.20;1.00
35607;DHT22;21729;58.392;15.656;2023-03-05T03:37:52;-3.20;1.00
35607;DHT22;21729;58.392;15.656;2023-03-05T03:40:19;-3.30;1.00
35607;DHT22;21729;58.392;15.656;2023-03-05T03:42:47;-3.20;1.00
35607;DHT22;21729;58.392;15.656;2023-03-05T03:45:14;-3.20;1.00
35607;DHT22;21729;58.392;15.656;2023-03-05T03:47:42;-3.20;1.00
35607;DHT22;21729;58.392;15.656;2023-03-05T03:50:10;-3.20;1.00
35607;DHT22;21729;58.392;15.656;2023-03-05T03:52:38;-3.30;1.00
35607;DHT22;21729;58.392;15.656;2023-03-05T03:55:05;-3.30;1.00
35607;DHT22;21729;58.392;15.656;2023-03-05T03:57:33;-3.30;1.00
35607;DHT22;21729;58.392;15.656;2023-03-05T04:00:00;-3.20;1.00
35607;DHT22;21729;58.392;15.656;2023-03-05T04:02:29;-3.30;1.00
35607;DHT22;21729;58.392;15.656;2023-03-05T04:04:57;-3.30;1.00
35607;DHT22;21729;58.392;15.656;2023-03-05T04:07:24;-3.40;1.00
35607;DHT22;21729;58.392;15.656;2023-03-05T04:09:52;-3.30;1.00
35607;DHT22;21729;58.392;15.656;2023-03-05T04:12:19;-3.40;1.00
35607;DHT22;21729;58.392;15.656;2023-03-05T04:14:47;-3.40;1.00
35607;DHT22;21729;58.392;15.656;2023-03-05T04:17:21;-3.40;1.00
35607;DHT22;21729;58.392;15.656;2023-03-05T04:19:48;-3.30;1.00
35607;DHT22;21729;58.392;15.656;2023-03-05T04:22:17;-3.20;1.00
35607;DHT22;21729;58.392;15.656;2023-03-05T04:24:44;-3.30;1.00
35607;DHT22;21729;58.392;15.656;2023-03-05T04:27:11;-3.20;1.00
35607;DHT22;21729;58.392;15.656;2023-03-05T04:29:38;-3.20;1.00
35607;DHT22;21729;58.392;15.656;2023-03-05T04:32:06;-3.20;1.00
35607;DHT22;21729;58.392;15.656;2023-03-05T04:34:33;-3.20;1.00
35607;DHT22;21729;58.392;15.656;2023-03-05T04:37:00;-3.20;1.00
35607;DHT22;21729;58.392;15.656;2023-03-05T04:39:32;-3.20;1.00
35607;DHT22;21729;58.392;15.656;2023-03-05T04:41:59;-3.20;1.00
35607;DHT22;21729;58.392;15.656;2023-03-05T04:44:26;-3.30;1.00
35607;DHT22;21729;58.392;15.656;2023-03-05T04:46:53;-3.30;1.00
35607;DHT22;21729;58.392;15.656;2023-03-05T04:49:20;-3.40;1.00
35607;DHT22;21729;58.392;15.656;2023-03-05T04:51:47;-3.40;1.00
35607;DHT22;21729;58.392;15.656;2023-03-05T04:54:14;-3.40;1.00
35607;DHT22;21729;58.392;15.656;2023-03-05T04:56:43;-3.00;1.00
35607;DHT22;21729;58.392;15.656;2023-03-05T04:59:10;-3.50;1.00
35607;DHT22;21729;58.392;15.656;2023-03-05T05:01:37;-3.50;1.00
35607;DHT22;21729;58.392;15.656;2023-03-05T05:04:04;-3.50;1.00
35607;DHT22;21729;58.392;15.656;2023-03-05T05:06:31;-3.50;1.00
35607;DHT22;21729;58.392;15.656;2023-03-05T05:08:58;-3.50;1.00
35607;DHT22;21729;58.392;15.656;2023-03-05T05:11:26;-3.50;1.00
35607;DHT22;21729;58.392;15.656;2023-03-05T05:13:54;-3.50;1.00
35607;DHT22;21729;58.392;15.656;2023-03-05T05:16:21;-3.60;1.00
35607;DHT22;21729;58.392;15.656;2023-03-05T05:18:48;-3.60;1.00
35607;DHT22;21729;58.392;15.656;2023-03-05T05:21:15;-3.60;1.00
35607;DHT22;21729;58.392;15.656;2023-03-05T05:23:43;-3.50;1.00
35607;DHT22;21729;58.392;15.656;2023-03-05T05:26:10;-3.60;1.00
35607;DHT22;21729;58.392;15.656;2023-03-05T05:28:39;-3.60;1.00
35607;DHT22;21729;58.392;15.656;2023-03-05T05:31:11;-3.60;1.00
35607;DHT22;21729;58.392;15.656;2023-03-05T05:33:39;-3.70;1.00
35607;DHT22;21729;58.392;15.656;2023-03-05T05:36:08;-3.70;1.00
35607;DHT22;21729;58.392;15.656;2023-03-05T05:38:35;-3.70;1.00
35607;DHT22;21729;58.392;15.656;2023-03-05T05:41:03;-3.70;1.00
35607;DHT22;21729;58.392;15.656;2023-03-05T05:43:31;-3.60;1.00
35607;DHT22;21729;58.392;15.656;2023-03-05T05:45:59;-3.70;1.00
35607;DHT22;21729;58.392;15.656;2023-03-05T05:48:29;-3.70;1.00
35607;DHT22;21729;58.392;15.656;2023-03-05T05:50:56;-3.60;1.00
35607;DHT22;21729;58.392;15.656;2023-03-05T05:53:24;-3.60;1.00
35607;DHT22;21729;58.392;15.656;2023-03-05T05:55:52;-3.50;1.00
35607;DHT22;21729;58.392;15.656;2023-03-05T05:58:19;-3.60;1.00
35607;DHT22;21729;58.392;15.656;2023-03-05T06:00:46;-3.50;1.00
35607;DHT22;21729;58.392;15.656;2023-03-05T06:03:13;-3.50;1.00
35607;DHT22;21729;58.392;15.656;2023-03-05T06:05:42;-3.60;1.00
35607;DHT22;21729;58.392;15.656;2023-03-05T06:08:09;-3.50;1.00
35607;DHT22;21729;58.392;15.656;2023-03-05T06:10:37;-3.50;1.00
35607;DHT22;21729;58.392;15.656;2023-03-05T06:13:04;-3.50;1.00
35607;DHT22;21729;58.392;15.656;2023-03-05T06:15:31;-3.40;1.00
35607;DHT22;21729;58.392;15.656;2023-03-05T06:17:58;-3.40;1.00
35607;DHT22;21729;58.392;15.656;2023-03-05T06:20:26;-3.40;1.00
35607;DHT22;21729;58.392;15.656;2023-03-05T06:22:55;-3.50;1.00
35607;DHT22;21729;58.392;15.656;2023-03-05T06:25:22;-3.50;1.00
35607;DHT22;21729;58.392;15.656;2023-03-05T06:27:49;-3.60;1.00
35607;DHT22;21729;58.392;15.656;2023-03-05T06:30:17;-3.50;1.00
35607;DHT22;21729;58.392;15.656;2023-03-05T06:32:44;-3.50;1.00
35607;DHT22;21729;58.392;15.656;2023-03-05T06:35:11;-3.40;1.00
35607;DHT22;21729;58.392;15.656;2023-03-05T06:37:38;-3.40;1.00
35607;DHT22;21729;58.392;15.656;2023-03-05T06:40:08;-3.00;1.00
35607;DHT22;21729;58.392;15.656;2023-03-05T06:42:36;-3.30;1.00
35607;DHT22;21729;58.392;15.656;2023-03-05T06:45:04;-3.30;1.00
35607;DHT22;21729;58.392;15.656;2023-03-05T06:47:31;-3.10;1.00
35607;DHT22;21729;58.392;15.656;2023-03-05T06:49:58;-3.10;1.00
35607;DHT22;21729;58.392;15.656;2023-03-05T06:52:26;-2.80;1.00
35607;DHT22;21729;58.392;15.656;2023-03-05T06:54:53;-3.10;1.00
35607;DHT22;21729;58.392;15.656;2023-03-05T06:57:22;-3.00;1.00
35607;DHT22;21729;58.392;15.656;2023-03-05T06:59:49;-3.00;1.00
35607;DHT22;21729;58.392;15.656;2023-03-05T07:02:17;-2.70;1.00
35607;DHT22;21729;58.392;15.656;2023-03-05T07:04:44;-2.50;1.00
35607;DHT22;21729;58.392;15.656;2023-03-05T07:07:11;-2.70;1.00
35607;DHT22;21729;58.392;15.656;2023-03-05T07:09:38;-2.60;1.00
35607;DHT22;21729;58.392;15.656;2023-03-05T07:12:08;-2.70;1.00
35607;DHT22;21729;58.392;15.656;2023-03-05T07:14:37;-2.50;1.00
35607;DHT22;21729;58.392;15.656;2023-03-05T07:17:05;-2.80;1.00
35607;DHT22;21729;58.392;15.656;2023-03-05T07:19:32;-2.80;1.00
35607;DHT22;21729;58.392;15.656;2023-03-05T07:21:59;-2.90;1.00
35607;DHT22;21729;58.392;15.656;2023-03-05T07:24:26;-2.90;1.00
35607;DHT22;21729;58.392;15.656;2023-03-05T07:26:54;-3.00;1.00
35607;DHT22;21729;58.392;15.656;2023-03-05T07:29:22;-2.70;1.00
35607;DHT22;21729;58.392;15.656;2023-03-05T07:31:53;-3.00;1.00
35607;DHT22;21729;58.392;15.656;2023-03-05T07:34:20;-2.90;1.00
35607;DHT22;21729;58.392;15.656;2023-03-05T07:36:49;-2.90;1.00
35607;DHT22;21729;58.392;15.656;2023-03-05T07:39:17;-2.80;1.00
35607;DHT22;21729;58.392;15.656;2023-03-05T07:41:44;-2.60;1.00
35607;DHT22;21729;58.392;15.656;2023-03-05T07:44:12;-2.40;1.00
35607;DHT22;21729;58.392;15.656;2023-03-05T07:46:39;-2.00;1.00
35607;DHT22;21729;58.392;15.656;2023-03-05T07:49:08;-2.10;1.00
35607;DHT22;21729;58.392;15.656;2023-03-05T07:51:35;-1.90;1.00
35607;DHT22;21729;58.392;15.656;2023-03-05T07:54:02;-1.80;1.00
35607;DHT22;21729;58.392;15.656;2023-03-05T07:56:31;-1.60;1.00
35607;DHT22;21729;58.392;15.656;2023-03-05T07:59:01;-1.50;1.00
35607;DHT22;21729;58.392;15.656;2023-03-05T08:01:30;-1.30;1.00
35607;DHT22;21729;58.392;15.656;2023-03-05T08:03:57;-1.30;1.00
35607;DHT22;21729;58.392;15.656;2023-03-05T08:06:25;-1.20;1.00
35607;DHT22;21729;58.392;15.656;2023-03-05T08:08:53;-1.00;1.00
35607;DHT22;21729;58.392;15.656;2023-03-05T08:11:20;-0.70;1.00
35607;DHT22;21729;58.392;15.656;2023-03-05T08:13:47;-0.50;1.00
35607;DHT22;21729;58.392;15.656;2023-03-05T08:16:16;-0.30;1.00
35607;DHT22;21729;58.392;15.656;2023-03-05T08:18:44;0.00;1.40
35607;DHT22;21729;58.392;15.656;2023-03-05T08:21:16;0.10;99.90
35607;DHT22;21729;58.392;15.656;2023-03-05T08:23:45;0.40;99.90
35607;DHT22;21729;58.392;15.656;2023-03-05T08:26:13;0.50;99.90
35607;DHT22;21729;58.392;15.656;2023-03-05T08:28:40;0.60;99.90
35607;DHT22;21729;58.392;15.656;2023-03-05T08:31:11;1.00;99.90
35607;DHT22;21729;58.392;15.656;2023-03-05T08:33:39;0.90;99.90
35607;DHT22;21729;58.392;15.656;2023-03-05T08:36:07;1.30;99.90
35607;DHT22;21729;58.392;15.656;2023-03-05T08:38:34;1.70;99.90
35607;DHT22;21729;58.392;15.656;2023-03-05T08:41:03;2.30;99.90
35607;DHT22;21729;58.392;15.656;2023-03-05T08:43:31;2.80;99.90
35607;DHT22;21729;58.392;15.656;2023-03-05T08:45:59;3.40;99.90
35607;DHT22;21729;58.392;15.656;2023-03-05T08:48:27;4.00;99.90
35607;DHT22;21729;58.392;15.656;2023-03-05T08:50:55;5.00;99.90
35607;DHT22;21729;58.392;15.656;2023-03-05T08:53:22;4.60;99.90
35607;DHT22;21729;58.392;15.656;2023-03-05T08:55:53;5.70;99.90
35607;DHT22;21729;58.392;15.656;2023-03-05T08:58:22;7.10;99.90
35607;DHT22;21729;58.392;15.656;2023-03-05T09:00:50;7.40;99.90
35607;DHT22;21729;58.392;15.656;2023-03-05T09:03:18;6.90;99.90
35607;DHT22;21729;58.392;15.656;2023-03-05T09:05:45;6.20;99.90
35607;DHT22;21729;58.392;15.656;2023-03-05T09:08:12;6.40;99.90
35607;DHT22;21729;58.392;15.656;2023-03-05T09:10:40;6.00;99.90
35607;DHT22;21729;58.392;15.656;2023-03-05T09:13:08;5.10;99.90
35607;DHT22;21729;58.392;15.656;2023-03-05T09:15:36;3.30;99.90
35607;DHT22;21729;58.392;15.656;2023-03-05T09:18:04;2.80;99.90
35607;DHT22;21729;58.392;15.656;2023-03-05T09:20:34;2.70;99.90
35607;DHT22;21729;58.392;15.656;2023-03-05T09:23:01;3.90;99.90
35607;DHT22;21729;58.392;15.656;2023-03-05T09:25:29;4.20;99.90
35607;DHT22;21729;58.392;15.656;2023-03-05T09:27:56;3.70;99.90
35607;DHT22;21729;58.392;15.656;2023-03-05T09:30:23;3.80;99.90
35607;DHT22;21729;58.392;15.656;2023-03-05T09:32:52;3.60;99.90
35607;DHT22;21729;58.392;15.656;2023-03-05T09:35:19;3.40;99.90
35607;DHT22;21729;58.392;15.656;2023-03-05T09:37:46;3.20;99.90
35607;DHT22;21729;58.392;15.656;2023-03-05T09:40:15;3.30;99.90
35607;DHT22;21729;58.392;15.656;2023-03-05T09:45:36;3.20;99.90
35607;DHT22;21729;58.392;15.656;2023-03-05T09:48:12;3.40;99.90
35607;DHT22;21729;58.392;15.656;2023-03-05T09:50:43;3.10;99.90
35607;DHT22;21729;58.392;15.656;2023-03-05T09:53:30;3.50;99.90
35607;DHT22;21729;58.392;15.656;2023-03-05T09:56:03;3.60;99.90
35607;DHT22;21729;58.392;15.656;2023-03-05T09:58:34;3.50;99.90
35607;DHT22;21729;58.392;15.656;2023-03-05T10:01:05;3.60;99.90
35607;DHT22;21729;58.392;15.656;2023-03-05T10:03:43;3.50;99.90
35607;DHT22;21729;58.392;15.656;2023-03-05T10:06:19;3.80;99.90
35607;DHT22;21729;58.392;15.656;2023-03-05T10:08:52;3.80;99.90
35607;DHT22;21729;58.392;15.656;2023-03-05T10:11:44;3.90;99.90
35607;DHT22;21729;58.392;15.656;2023-03-05T10:14:15;4.00;99.90
35607;DHT22;21729;58.392;15.656;2023-03-05T10:20:04;3.80;99.90
35607;DHT22;21729;58.392;15.656;2023-03-05T10:22:37;4.00;99.90
35607;DHT22;21729;58.392;15.656;2023-03-05T10:25:17;3.90;99.90
35607;DHT22;21729;58.392;15.656;2023-03-05T10:27:47;3.80;99.90
35607;DHT22;21729;58.392;15.656;2023-03-05T10:30:30;3.80;99.90
35607;DHT22;21729;58.392;15.656;2023-03-05T10:33:07;3.40;99.90
35607;DHT22;21729;58.392;15.656;2023-03-05T10:36:01;3.10;99.90
35607;DHT22;21729;58.392;15.656;2023-03-05T10:39:14;2.40;99.90
35607;DHT22;21729;58.392;15.656;2023-03-05T10:41:53;2.80;99.90
35607;DHT22;21729;58.392;15.656;2023-03-05T10:44:33;2.80;99.90
35607;DHT22;21729;58.392;15.656;2023-03-05T10:47:06;2.40;99.90
35607;DHT22;21729;58.392;15.656;2023-03-05T10:49:44;2.30;99.90
35607;DHT22;21729;58.392;15.656;2023-03-05T10:52:17;2.00;99.90
35607;DHT22;21729;58.392;15.656;2023-03-05T10:54:46;1.90;99.90
35607;DHT22;21729;58.392;15.656;2023-03-05T10:57:17;1.80;99.90
35607;DHT22;21729;58.392;15.656;2023-03-05T10:59:48;1.80;99.90
35607;DHT22;21729;58.392;15.656;2023-03-05T11:02:17;1.80;99.90
35607;DHT22;21729;58.392;15.656;2023-03-05T11:04:44;1.70;99.90
35607;DHT22;21729;58.392;15.656;2023-03-05T11:07:38;1.70;99.90
35607;DHT22;21729;58.392;15.656;2023-03-05T11:10:14;1.70;99.90
35607;DHT22;21729;58.392;15.656;2023-03-05T11:12:43;1.60;99.90
35607;DHT22;21729;58.392;15.656;2023-03-05T11:15:27;1.30;99.90
35607;DHT22;21729;58.392;15.656;2023-03-05T11:18:16;1.50;99.90
35607;DHT22;21729;58.392;15.656;2023-03-05T11:20:44;1.60;99.90
35607;DHT22;21729;58.392;15.656;2023-03-05T11:23:14;1.70;99.90
35607;DHT22;21729;58.392;15.656;2023-03-05T11:26:03;1.80;99.90
35607;DHT22;21729;58.392;15.656;2023-03-05T11:28:34;1.80;99.90
35607;DHT22;21729;58.392;15.656;2023-03-05T11:31:05;1.90;99.90
35607;DHT22;21729;58.392;15.656;2023-03-05T11:33:34;2.10;99.90
35607;DHT22;21729;58.392;15.656;2023-03-05T11:36:23;2.20;99.90
35607;DHT22;21729;58.392;15.656;2023-03-05T11:38:55;2.00;99.90
35607;DHT22;21729;58.392;15.656;2023-03-05T11:41:30;2.00;99.90
35607;DHT22;21729;58.392;15.656;2023-03-05T11:44:00;2.10;99.90
35607;DHT22;21729;58.392;15.656;2023-03-05T11:46:36;1.80;99.90
35607;DHT22;21729;58.392;15.656;2023-03-05T11:49:05;2.00;99.90
35607;DHT22;21729;58.392;15.656;2023-03-05T11:51:38;2.00;99.90
35607;DHT22;21729;58.392;15.656;2023-03-05T11:54:13;2.00;99.90
35607;DHT22;21729;58.392;15.656;2023-03-05T11:56:42;1.90;99.90
35607;DHT22;21729;58.392;15.656;2023-03-05T11:59:13;2.10;99.90
35607;DHT22;21729;58.392;15.656;2023-03-05T12:01:44;2.30;99.90
35607;DHT22;21729;58.392;15.656;2023-03-05T12:04:12;2.40;99.90
35607;DHT22;21729;58.392;15.656;2023-03-05T12:06:43;2.30;99.90
35607;DHT22;21729;58.392;15.656;2023-03-05T12:09:20;2.30;99.90
35607;DHT22;21729;58.392;15.656;2023-03-05T12:11:52;2.50;99.90
35607;DHT22;21729;58.392;15.656;2023-03-05T12:14:24;2.40;99.90
35607;DHT22;21729;58.392;15.656;2023-03-05T12:16:55;1.90;99.90
35607;DHT22;21729;58.392;15.656;2023-03-05T12:19:35;2.00;99.90
35607;DHT22;21729;58.392;15.656;2023-03-05T12:22:16;2.10;99.90
35607;DHT22;21729;58.392;15.656;2023-03-05T12:24:46;2.10;99.90
35607;DHT22;21729;58.392;15.656;2023-03-05T12:27:15;2.10;99.90
35607;DHT22;21729;58.392;15.656;2023-03-05T12:29:47;2.50;99.90
35607;DHT22;21729;58.392;15.656;2023-03-05T12:35:30;2.60;99.90
35607;DHT22;21729;58.392;15.656;2023-03-05T12:38:28;2.50;99.90
35607;DHT22;21729;58.392;15.656;2023-03-05T12:41:33;2.50;99.90
35607;DHT22;21729;58.392;15.656;2023-03-05T12:44:20;2.50;99.90
35607;DHT22;21729;58.392;15.656;2023-03-05T12:47:16;2.20;99.90
35607;DHT22;21729;58.392;15.656;2023-03-05T12:49:45;2.40;99.90
35607;DHT22;21729;58.392;15.656;2023-03-05T12:52:24;2.30;99.90
35607;DHT22;21729;58.392;15.656;2023-03-05T12:55:16;2.70;99.90
35607;DHT22;21729;58.392;15.656;2023-03-05T12:57:48;3.00;99.90
35607;DHT22;21729;58.392;15.656;2023-03-05T13:00:21;2.90;99.90
35607;DHT22;21729;58.392;15.656;2023-03-05T13:02:54;2.70;99.90
35607;DHT22;21729;58.392;15.656;2023-03-05T13:05:26;2.50;99.90
35607;DHT22;21729;58.392;15.656;2023-03-05T13:08:09;1.80;99.90
35607;DHT22;21729;58.392;15.656;2023-03-05T13:10:36;1.60;99.90
35607;DHT22;21729;58.392;15.656;2023-03-05T13:13:10;1.30;99.90
35607;DHT22;21729;58.392;15.656;2023-03-05T13:15:44;1.10;1.00
35607;DHT22;21729;58.392;15.656;2023-03-05T13:18:17;0.80;1.00
35607;DHT22;21729;58.392;15.656;2023-03-05T13:20:45;0.50;1.00
35607;DHT22;21729;58.392;15.656;2023-03-05T13:23:20;0.30;1.00
35607;DHT22;21729;58.392;15.656;2023-03-05T13:26:00;0.20;99.90
35607;DHT22;21729;58.392;15.656;2023-03-05T13:28:29;-0.40;99.90
35607;DHT22;21729;58.392;15.656;2023-03-05T13:30:58;-0.60;1.00
35607;DHT22;21729;58.392;15.656;2023-03-05T13:33:29;-0.20;1.00
35607;DHT22;21729;58.392;15.656;2023-03-05T13:35:56;-0.30;1.00
35607;DHT22;21729;58.392;15.656;2023-03-05T13:38:27;-0.20;99.90
35607;DHT22;21729;58.392;15.656;2023-03-05T13:41:07;-0.20;99.90
35607;DHT22;21729;58.392;15.656;2023-03-05T13:43:43;-0.30;99.90
35607;DHT22;21729;58.392;15.656;2023-03-05T13:46:10;-0.10;99.90
35607;DHT22;21729;58.392;15.656;2023-03-05T13:48:37;0.00;99.90
35607;DHT22;21729;58.392;15.656;2023-03-05T13:51:05;0.00;99.90
35607;DHT22;21729;58.392;15.656;2023-03-05T13:53:34;0.20;99.90
35607;DHT22;21729;58.392;15.656;2023-03-05T13:56:02;0.30;99.90
35607;DHT22;21729;58.392;15.656;2023-03-05T13:58:46;0.10;99.90
35607;DHT22;21729;58.392;15.656;2023-03-05T14:01:25;0.00;99.90
35607;DHT22;21729;58.392;15.656;2023-03-05T14:03:54;0.00;99.90
35607;DHT22;21729;58.392;15.656;2023-03-05T14:06:25;0.00;99.90
35607;DHT22;21729;58.392;15.656;2023-03-05T14:08:56;-0.30;99.90
35607;DHT22;21729;58.392;15.656;2023-03-05T14:11:26;-0.30;99.90
35607;DHT22;21729;58.392;15.656;2023-03-05T14:14:04;-0.30;99.90
35607;DHT22;21729;58.392;15.656;2023-03-05T14:16:32;-0.20;99.90
35607;DHT22;21729;58.392;15.656;2023-03-05T14:19:02;-0.10;99.90
35607;DHT22;21729;58.392;15.656;2023-03-05T14:21:46;-0.10;99.90
35607;DHT22;21729;58.392;15.656;2023-03-05T14:24:19;0.30;99.90
35607;DHT22;21729;58.392;15.656;2023-03-05T14:26:49;0.00;99.90
35607;DHT22;21729;58.392;15.656;2023-03-05T14:29:21;0.10;97.40
35607;DHT22;21729;58.392;15.656;2023-03-05T14:31:52;0.10;57.20
35607;DHT22;21729;58.392;15.656;2023-03-05T14:34:31;0.20;57.80
35607;DHT22;21729;58.392;15.656;2023-03-05T14:36:59;0.20;42.10
35607;DHT22;21729;58.392;15.656;2023-03-05T14:39:30;0.20;16.00
35607;DHT22;21729;58.392;15.656;2023-03-05T14:42:23;0.20;15.10
35607;DHT22;21729;58.392;15.656;2023-03-05T14:44:53;0.20;9.40
35607;DHT22;21729;58.392;15.656;2023-03-05T14:47:21;0.30;12.00
35607;DHT22;21729;58.392;15.656;2023-03-05T14:49:48;0.30;8.60
35607;DHT22;21729;58.392;15.656;2023-03-05T14:52:16;0.30;4.80
35607;DHT22;21729;58.392;15.656;2023-03-05T14:54:44;0.30;5.70
35607;DHT22;21729;58.392;15.656;2023-03-05T14:57:17;0.30;1.00
35607;DHT22;21729;58.392;15.656;2023-03-05T14:59:44;0.30;1.00
35607;DHT22;21729;58.392;15.656;2023-03-05T15:02:15;0.40;1.00
35607;DHT22;21729;58.392;15.656;2023-03-05T15:04:43;0.40;1.00
35607;DHT22;21729;58.392;15.656;2023-03-05T15:07:17;0.30;1.00
35607;DHT22;21729;58.392;15.656;2023-03-05T15:09:45;0.20;1.00
35607;DHT22;21729;58.392;15.656;2023-03-05T15:12:14;0.10;1.00
35607;DHT22;21729;58.392;15.656;2023-03-05T15:14:41;0.10;1.00
35607;DHT22;21729;58.392;15.656;2023-03-05T15:17:21;0.10;1.00
35607;DHT22;21729;58.392;15.656;2023-03-05T15:19:48;0.20;1.00
35607;DHT22;21729;58.392;15.656;2023-03-05T15:22:16;0.20;1.00
35607;DHT22;21729;58.392;15.656;2023-03-05T15:24:44;0.20;1.00
35607;DHT22;21729;58.392;15.656;2023-03-05T15:27:11;0.20;1.00
35607;DHT22;21729;58.392;15.656;2023-03-05T15:29:39;0.20;1.00
35607;DHT22;21729;58.392;15.656;2023-03-05T15:32:07;0.30;1.00
35607;DHT22;21729;58.392;15.656;2023-03-05T15:34:36;0.30;1.00
35607;DHT22;21729;58.392;15.656;2023-03-05T15:37:03;0.20;1.00
35607;DHT22;21729;58.392;15.656;2023-03-05T15:39:30;0.10;1.00
35607;DHT22;21729;58.392;15.656;2023-03-05T15:41:57;0.00;1.00
35607;DHT22;21729;58.392;15.656;2023-03-05T15:44:25;0.00;1.00
35607;DHT22;21729;58.392;15.656;2023-03-05T15:46:52;-0.10;1.00
35607;DHT22;21729;58.392;15.656;2023-03-05T15:49:21;0.00;9.00
35607;DHT22;21729;58.392;15.656;2023-03-05T15:51:50;-0.20;24.80
35607;DHT22;21729;58.392;15.656;2023-03-05T15:54:19;-0.30;28.40
35607;DHT22;21729;58.392;15.656;2023-03-05T15:56:46;-0.20;61.50